createdAt,value
2023-05-11T00:01:09.823Z,1.33
2023-05-11T00:03:36.715Z,1.40
2023-05-11T00:06:04.080Z,1.67
2023-05-11T00:08:30.878Z,2.00
2023-05-11T00:10:57.760Z,1.73
2023-05-11T00:13:24.622Z,2.40
2023-05-11T00:15:51.441Z,1.30
2023-05-11T00:18:18.330Z,1.77
2023-05-11T00:20:46.337Z,1.53
2023-05-11T00:23:13.209Z,1.57
2023-05-11T00:25:40.052Z,1.53
2023-05-11T00:28:06.881Z,3.50
2023-05-11T00:30:34.059Z,1.70
2023-05-11T00:33:00.984Z,1.57
2023-05-11T00:35:27.829Z,2.20
2023-05-11T00:37:54.656Z,1.97
2023-05-11T00:40:21.527Z,2.23
2023-05-11T00:42:50.305Z,1.63
2023-05-11T00:45:17.363Z,1.70
2023-05-11T00:47:44.269Z,2.03
2023-05-11T00:50:11.402Z,1.93
2023-05-11T00:52:38.369Z,2.00
2023-05-11T00:55:06.235Z,2.27
2023-05-11T00:57:34.292Z,1.80
2023-05-11T01:00:03.478Z,1.57
2023-05-11T01:02:30.577Z,1.70
2023-05-11T01:04:57.570Z,1.97
2023-05-11T01:07:34.546Z,1.70
2023-05-11T01:10:33.195Z,1.70
2023-05-11T01:13:23.231Z,2.80
2023-05-11T01:15:55.185Z,2.00
2023-05-11T01:18:35.622Z,2.13
2023-05-11T01:21:03.292Z,2.00
2023-05-11T01:24:18.206Z,2.10
2023-05-11T01:26:59.802Z,1.70
2023-05-11T01:30:10.876Z,2.53
2023-05-11T01:32:41.806Z,1.93
2023-05-11T01:35:17.710Z,1.70
2023-05-11T01:37:51.860Z,1.90
2023-05-11T01:40:26.283Z,2.23
2023-05-11T01:43:04.937Z,1.70
2023-05-11T01:45:45.317Z,2.33
2023-05-11T01:48:20.293Z,1.93
2023-05-11T01:50:50.116Z,2.20
2023-05-11T01:53:18.438Z,2.53
2023-05-11T01:55:47.733Z,2.57
2023-05-11T01:58:17.512Z,2.23
2023-05-11T02:00:46.408Z,1.87
2023-05-11T02:03:15.969Z,1.90
2023-05-11T02:05:46.124Z,1.57
2023-05-11T02:08:15.010Z,1.80
2023-05-11T02:10:42.575Z,1.80
2023-05-11T02:13:10.789Z,2.10
2023-05-11T02:15:43.260Z,2.80
2023-05-11T02:18:14.850Z,2.27
2023-05-11T02:20:47.346Z,2.30
2023-05-11T02:23:16.355Z,2.43
2023-05-11T02:25:43.984Z,1.90
2023-05-11T02:28:10.977Z,2.20
2023-05-11T02:30:47.109Z,2.10
2023-05-11T02:33:41.797Z,2.87
2023-05-11T02:36:10.005Z,3.70
2023-05-11T02:38:39.566Z,2.13
2023-05-11T02:41:14.601Z,3.10
2023-05-11T02:43:51.729Z,2.13
2023-05-11T02:46:25.625Z,1.93
2023-05-11T02:48:56.797Z,2.57
2023-05-11T02:51:32.863Z,2.27
2023-05-11T02:54:01.736Z,2.77
2023-05-11T02:56:29.925Z,1.90
2023-05-11T02:58:56.826Z,2.40
2023-05-11T03:01:24.561Z,2.60
2023-05-11T03:03:51.958Z,1.90
2023-05-11T03:06:18.995Z,2.03
2023-05-11T03:08:46.803Z,1.97
2023-05-11T03:11:16.337Z,2.83
2023-05-11T03:13:44.680Z,2.20
2023-05-11T03:16:13.044Z,2.20
2023-05-11T03:18:41.133Z,2.03
2023-05-11T03:21:08.805Z,2.00
2023-05-11T03:23:36.853Z,2.43
2023-05-11T03:26:07.159Z,2.27
2023-05-11T03:28:35.871Z,2.90
2023-05-11T03:31:04.828Z,4.93
2023-05-11T03:33:32.405Z,3.20
2023-05-11T03:36:00.948Z,2.53
2023-05-11T03:38:29.463Z,2.90
2023-05-11T03:40:58.623Z,3.80
2023-05-11T03:43:29.332Z,2.57
2023-05-11T03:45:58.248Z,2.60
2023-05-11T03:48:25.317Z,4.13
2023-05-11T03:50:52.582Z,2.37
2023-05-11T03:53:20.287Z,2.70
2023-05-11T03:55:47.240Z,2.90
2023-05-11T03:58:14.551Z,2.80
2023-05-11T04:00:42.666Z,4.43
2023-05-11T04:03:10.005Z,2.57
2023-05-11T04:05:37.017Z,3.60
2023-05-11T04:08:05.653Z,2.70
2023-05-11T04:10:32.548Z,4.03
2023-05-11T04:12:59.435Z,2.43
2023-05-11T04:15:26.299Z,2.40
2023-05-11T04:17:53.113Z,2.20
2023-05-11T04:20:20.235Z,2.43
2023-05-11T04:22:47.323Z,2.40
2023-05-11T04:25:14.217Z,3.53
2023-05-11T04:27:41.068Z,2.40
2023-05-11T04:30:09.785Z,2.57
2023-05-11T04:32:36.724Z,2.30
2023-05-11T04:35:03.975Z,3.13
2023-05-11T04:37:30.758Z,2.93
2023-05-11T04:39:57.901Z,3.27
2023-05-11T04:42:24.800Z,2.70
2023-05-11T04:44:54.771Z,3.03
2023-05-11T04:47:21.660Z,3.07
2023-05-11T04:49:48.562Z,2.63
2023-05-11T04:52:15.431Z,2.40
2023-05-11T04:54:42.322Z,3.00
2023-05-11T04:57:09.172Z,3.07
2023-05-11T04:59:35.996Z,3.13
2023-05-11T05:02:02.906Z,2.53
2023-05-11T05:04:29.809Z,3.03
2023-05-11T05:06:56.697Z,3.10
2023-05-11T05:09:23.588Z,2.70
2023-05-11T05:11:50.404Z,3.13
2023-05-11T05:14:17.332Z,2.83
2023-05-11T05:16:44.469Z,2.30
2023-05-11T05:19:11.374Z,3.00
2023-05-11T05:21:38.428Z,2.43
2023-05-11T05:24:05.536Z,3.27
2023-05-11T05:26:32.540Z,3.40
2023-05-11T05:28:59.321Z,3.40
2023-05-11T05:31:26.411Z,3.10
2023-05-11T05:33:53.332Z,2.77
2023-05-11T05:36:20.128Z,3.10
2023-05-11T05:38:47.013Z,3.27
2023-05-11T05:41:13.977Z,2.60
2023-05-11T05:43:40.771Z,3.30
2023-05-11T05:46:07.696Z,2.77
2023-05-11T05:48:34.688Z,2.80
2023-05-11T05:51:01.601Z,4.60
2023-05-11T05:53:28.502Z,3.60
2023-05-11T05:55:55.320Z,3.23
2023-05-11T05:58:22.257Z,3.60
2023-05-11T06:00:49.189Z,3.60
2023-05-11T06:03:16.061Z,2.93
2023-05-11T06:05:42.949Z,2.57
2023-05-11T06:08:11.415Z,5.23
2023-05-11T06:10:38.811Z,3.50
2023-05-11T06:13:08.373Z,3.07
2023-05-11T06:15:35.437Z,3.00
2023-05-11T06:18:02.410Z,3.13
2023-05-11T06:20:29.290Z,3.53
2023-05-11T06:22:56.097Z,3.63
2023-05-11T06:25:23.013Z,3.77
2023-05-11T06:27:49.895Z,3.77
2023-05-11T06:30:16.957Z,3.43
2023-05-11T06:32:44.014Z,4.30
2023-05-11T06:35:11.054Z,3.87
2023-05-11T06:37:37.897Z,2.73
2023-05-11T06:40:05.324Z,4.13
2023-05-11T06:42:32.285Z,2.70
2023-05-11T06:44:59.247Z,3.03
2023-05-11T06:47:26.233Z,3.30
2023-05-11T06:49:53.245Z,3.00
2023-05-11T06:52:20.067Z,4.50
2023-05-11T06:54:46.948Z,3.57
2023-05-11T06:57:14.663Z,4.27
2023-05-11T06:59:41.664Z,4.30
2023-05-11T07:02:08.474Z,3.20
2023-05-11T07:04:35.512Z,4.20
2023-05-11T07:07:02.950Z,3.90
2023-05-11T07:09:30.455Z,3.60
2023-05-11T07:11:57.356Z,4.70
2023-05-11T07:14:24.305Z,3.97
2023-05-11T07:16:51.204Z,3.70
2023-05-11T07:19:18.414Z,3.27
2023-05-11T07:21:45.304Z,3.57
2023-05-11T07:24:12.172Z,3.13
2023-05-11T07:26:39.044Z,2.90
2023-05-11T07:29:05.873Z,3.33
2023-05-11T07:31:32.797Z,4.20
2023-05-11T07:33:59.637Z,3.97
2023-05-11T07:36:26.597Z,3.10
2023-05-11T07:38:53.468Z,3.00
2023-05-11T07:41:20.729Z,3.37
2023-05-11T07:43:47.660Z,3.30
2023-05-11T07:46:14.634Z,3.93
2023-05-11T07:48:41.584Z,3.70
2023-05-11T07:51:08.545Z,4.67
2023-05-11T07:53:36.026Z,3.13
2023-05-11T07:56:02.961Z,4.23
2023-05-11T07:58:30.126Z,3.57
2023-05-11T08:00:57.644Z,3.47
2023-05-11T08:03:24.674Z,3.53
2023-05-11T08:05:51.614Z,3.53
2023-05-11T08:08:18.584Z,4.23
2023-05-11T08:10:45.575Z,4.43
2023-05-11T08:13:12.431Z,4.90
2023-05-11T08:15:39.312Z,3.10
2023-05-11T08:18:06.244Z,3.20
2023-05-11T08:20:33.273Z,4.10
2023-05-11T08:23:00.149Z,3.80
2023-05-11T08:25:27.048Z,4.03
2023-05-11T08:27:53.918Z,3.67
2023-05-11T08:30:20.947Z,2.77
2023-05-11T08:32:57.859Z,3.67
2023-05-11T08:35:26.052Z,3.77
2023-05-11T08:37:53.061Z,4.00
2023-05-11T08:40:21.848Z,3.80
2023-05-11T08:42:53.105Z,3.70
2023-05-11T08:45:21.275Z,3.00
2023-05-11T08:47:49.417Z,3.37
2023-05-11T08:50:16.623Z,3.20
2023-05-11T08:52:43.597Z,2.97
2023-05-11T08:55:11.235Z,4.20
2023-05-11T08:57:39.913Z,4.40
2023-05-11T09:00:08.509Z,4.60
2023-05-11T09:02:36.044Z,4.60
2023-05-11T09:05:03.838Z,4.37
2023-05-11T09:07:31.882Z,4.00
2023-05-11T09:09:58.828Z,3.80
2023-05-11T09:12:25.950Z,4.90
2023-05-11T09:14:53.039Z,4.10
2023-05-11T09:17:19.880Z,4.50
2023-05-11T09:20:05.613Z,4.30
2023-05-11T09:22:36.681Z,4.50
2023-05-11T09:25:04.479Z,5.40
2023-05-11T09:27:31.335Z,5.23
2023-05-11T09:30:12.200Z,5.37
2023-05-11T09:32:56.382Z,5.20
2023-05-11T09:35:32.802Z,4.93
2023-05-11T09:38:18.852Z,5.90
2023-05-11T09:40:56.903Z,4.73
2023-05-11T09:43:29.376Z,5.53
2023-05-11T09:45:59.470Z,4.90
2023-05-11T09:48:33.033Z,6.07
2023-05-11T09:51:08.395Z,5.43
2023-05-11T09:53:44.711Z,5.87
2023-05-11T09:56:13.490Z,5.40
2023-05-11T09:58:52.782Z,5.97
2023-05-11T10:01:33.456Z,5.90
2023-05-11T10:04:21.367Z,6.27
2023-05-11T10:06:52.569Z,6.53
2023-05-11T10:09:24.763Z,6.57
2023-05-11T10:11:53.994Z,6.30
2023-05-11T10:14:22.646Z,6.33
2023-05-11T10:16:50.541Z,6.00
2023-05-11T10:19:18.276Z,5.80
2023-05-11T10:21:46.151Z,6.10
2023-05-11T10:24:13.075Z,7.87
2023-05-11T10:26:40.139Z,6.97
2023-05-11T10:29:07.641Z,6.90
2023-05-11T10:31:35.605Z,7.70
2023-05-11T10:34:02.667Z,6.57
2023-05-11T10:36:30.327Z,7.00
2023-05-11T10:38:57.174Z,6.50
2023-05-11T10:42:10.443Z,7.80
2023-05-11T10:45:09.686Z,7.30
2023-05-11T10:48:04.557Z,7.40
2023-05-11T10:51:12.397Z,6.90
2023-05-11T10:53:57.981Z,7.00
2023-05-11T10:56:52.797Z,6.80
2023-05-11T10:59:57.125Z,7.37
2023-05-11T11:02:31.220Z,7.60
2023-05-11T11:04:58.186Z,6.80
2023-05-11T11:07:25.093Z,6.93
2023-05-11T11:09:52.915Z,7.67
2023-05-11T11:12:21.464Z,6.33
2023-05-11T11:14:59.376Z,7.27
2023-05-11T11:17:35.858Z,7.03
2023-05-11T11:20:05.700Z,7.20
2023-05-11T11:22:36.064Z,8.30
2023-05-11T11:25:13.583Z,7.73
2023-05-11T11:27:40.458Z,7.23
2023-05-11T11:30:29.115Z,9.33
2023-05-11T11:33:15.901Z,8.40
2023-05-11T11:35:42.991Z,7.60
2023-05-11T11:38:20.669Z,8.73
2023-05-11T11:40:52.469Z,16.23
2023-05-11T11:43:28.716Z,6.90
2023-05-11T11:46:02.779Z,8.57
2023-05-11T11:48:40.275Z,8.50
2023-05-11T11:51:13.406Z,9.33
2023-05-11T11:53:40.259Z,9.07
2023-05-11T11:56:09.524Z,8.07
2023-05-11T11:58:42.650Z,8.40
2023-05-11T12:01:17.180Z,8.40
2023-05-11T12:03:47.379Z,9.57
2023-05-11T12:06:15.106Z,8.80
2023-05-11T12:08:43.465Z,9.10
2023-05-11T12:11:10.353Z,10.33
2023-05-11T12:13:37.384Z,10.43
2023-05-11T12:16:17.296Z,9.67
2023-05-11T12:19:00.110Z,9.53
2023-05-11T12:21:31.555Z,9.40
2023-05-11T12:24:07.590Z,9.47
2023-05-11T12:26:35.737Z,9.23
2023-05-11T12:29:14.614Z,8.83
2023-05-11T12:31:46.227Z,9.87
2023-05-11T12:34:18.249Z,10.00
2023-05-11T12:36:47.079Z,10.30
2023-05-11T12:39:22.311Z,10.10
2023-05-11T12:41:51.441Z,9.60
2023-05-11T12:44:19.494Z,10.23
2023-05-11T12:46:48.053Z,11.47
2023-05-11T12:49:26.592Z,11.20
2023-05-11T12:52:00.288Z,10.93
2023-05-11T12:54:32.689Z,11.37
2023-05-11T12:57:02.191Z,12.40
2023-05-11T12:59:34.404Z,11.87
2023-05-11T13:02:19.652Z,11.90
2023-05-11T13:04:48.136Z,11.87
2023-05-11T13:07:26.014Z,11.03
2023-05-11T13:09:59.089Z,12.00
2023-05-11T13:12:27.687Z,12.67
2023-05-11T13:15:08.818Z,14.43
2023-05-11T13:17:45.263Z,12.87
2023-05-11T13:20:20.696Z,14.77
2023-05-11T13:22:49.619Z,16.00
2023-05-11T13:25:20.652Z,15.20
2023-05-11T13:27:48.146Z,15.60
2023-05-11T13:30:15.318Z,15.90
2023-05-11T13:32:42.185Z,16.17
2023-05-11T13:35:09.665Z,16.60
2023-05-11T13:37:36.805Z,15.83
2023-05-11T13:40:05.647Z,18.30
2023-05-11T13:42:32.589Z,17.37
2023-05-11T13:44:59.424Z,15.20
2023-05-11T13:47:26.365Z,15.97
2023-05-11T13:49:53.315Z,15.47
2023-05-11T13:52:21.221Z,16.83
2023-05-11T13:54:48.864Z,14.83
2023-05-11T13:57:15.911Z,17.80
2023-05-11T13:59:42.818Z,18.20
2023-05-11T14:02:10.050Z,16.70
2023-05-11T14:04:37.159Z,17.30
2023-05-11T14:07:04.253Z,19.90
2023-05-11T14:09:31.157Z,22.83
2023-05-11T14:11:58.002Z,16.90
2023-05-11T14:14:24.812Z,18.63
2023-05-11T14:16:51.731Z,22.37
2023-05-11T14:19:18.843Z,23.40
2023-05-11T14:21:45.838Z,17.30
2023-05-11T14:24:12.950Z,17.60
2023-05-11T14:26:41.222Z,18.60
2023-05-11T14:29:08.236Z,17.67
2023-05-11T14:31:36.056Z,19.00
2023-05-11T14:34:04.754Z,19.43
2023-05-11T14:36:31.824Z,19.13
2023-05-11T14:38:58.746Z,19.93
2023-05-11T14:41:25.754Z,20.10
2023-05-11T14:43:52.678Z,19.80
2023-05-11T14:46:19.643Z,20.67
2023-05-11T14:48:46.708Z,16.87
2023-05-11T14:51:13.556Z,17.60
2023-05-11T14:53:40.542Z,15.80
2023-05-11T14:56:07.784Z,15.40
2023-05-11T14:58:34.840Z,14.80
2023-05-11T15:01:01.777Z,15.87
2023-05-11T15:03:28.569Z,15.93
2023-05-11T15:05:55.376Z,15.53
2023-05-11T15:08:29.544Z,15.40
2023-05-11T15:10:58.848Z,13.07
2023-05-11T15:13:25.666Z,14.03
2023-05-11T15:15:52.571Z,12.57
2023-05-11T15:18:19.645Z,13.47
2023-05-11T15:20:46.830Z,13.97
2023-05-11T15:23:13.747Z,14.13
2023-05-11T15:25:40.661Z,13.07
2023-05-11T15:28:07.559Z,13.00
2023-05-11T15:30:34.413Z,12.50
2023-05-11T15:33:01.297Z,12.60
2023-05-11T15:35:28.294Z,12.37
2023-05-11T15:37:55.177Z,11.63
2023-05-11T15:40:22.216Z,12.20
2023-05-11T15:42:49.056Z,11.80
2023-05-11T15:45:16.076Z,12.57
2023-05-11T15:47:42.993Z,13.43
2023-05-11T15:50:10.300Z,11.70
2023-05-11T15:52:37.221Z,10.33
2023-05-11T15:55:04.461Z,11.83
2023-05-11T15:57:31.352Z,16.20
2023-05-11T15:59:58.294Z,11.33
2023-05-11T16:02:25.265Z,11.30
2023-05-11T16:04:52.150Z,12.00
2023-05-11T16:07:19.026Z,12.00
2023-05-11T16:09:45.980Z,15.53
2023-05-11T16:12:12.878Z,13.70
2023-05-11T16:14:39.928Z,11.83
2023-05-11T16:17:07.752Z,11.10
2023-05-11T16:19:34.828Z,10.30
2023-05-11T16:22:01.768Z,13.67
2023-05-11T16:24:28.656Z,11.37
2023-05-11T16:26:56.777Z,11.60
2023-05-11T16:29:23.731Z,11.10
2023-05-11T16:31:50.633Z,11.60
2023-05-11T16:34:17.604Z,12.17
2023-05-11T16:36:44.869Z,11.97
2023-05-11T16:39:11.708Z,12.10
2023-05-11T16:41:38.566Z,14.97
2023-05-11T16:44:05.478Z,12.63
2023-05-11T16:46:32.432Z,12.93
2023-05-11T16:48:59.299Z,11.70
2023-05-11T16:51:26.263Z,13.70
2023-05-11T16:53:53.057Z,14.17
2023-05-11T16:56:19.868Z,18.87
2023-05-11T16:58:46.683Z,35.50
2023-05-11T17:01:13.553Z,16.67
2023-05-11T17:03:40.526Z,12.53
2023-05-11T17:06:07.454Z,12.73
2023-05-11T17:08:34.420Z,14.60
2023-05-11T17:11:01.250Z,14.87
2023-05-11T17:13:28.046Z,15.37
2023-05-11T17:15:55.730Z,15.50
2023-05-11T17:18:23.157Z,13.80
2023-05-11T17:20:54.783Z,14.80
2023-05-11T17:23:22.643Z,12.73
2023-05-11T17:25:49.454Z,16.67
2023-05-11T17:28:16.352Z,13.13
2023-05-11T17:30:48.525Z,15.27
2023-05-11T17:33:16.490Z,15.80
2023-05-11T17:35:43.705Z,14.80
2023-05-11T17:38:10.592Z,15.73
2023-05-11T17:40:38.455Z,14.40
2023-05-11T17:43:05.356Z,15.57
2023-05-11T17:45:32.281Z,14.17
2023-05-11T17:47:59.164Z,16.30
2023-05-11T17:50:26.121Z,16.10
2023-05-11T17:52:52.936Z,14.80
2023-05-11T17:55:20.008Z,15.37
2023-05-11T17:57:47.188Z,15.30
2023-05-11T18:00:15.093Z,17.73
2023-05-11T18:02:42.040Z,16.47
2023-05-11T18:05:09.413Z,15.40
2023-05-11T18:07:36.251Z,18.97
2023-05-11T18:10:03.402Z,20.77
2023-05-11T18:12:30.203Z,19.23
2023-05-11T18:14:57.016Z,16.93
2023-05-11T18:17:23.851Z,17.20
2023-05-11T18:19:52.091Z,19.97
2023-05-11T18:22:19.608Z,16.13
2023-05-11T18:24:46.462Z,16.13
2023-05-11T18:27:13.280Z,15.20
2023-05-11T18:29:40.114Z,19.07
2023-05-11T18:32:07.060Z,17.97
2023-05-11T18:34:34.065Z,18.97
2023-05-11T18:37:01.933Z,17.20
2023-05-11T18:39:28.818Z,18.10
2023-05-11T18:41:55.666Z,17.47
2023-05-11T18:44:22.564Z,17.37
2023-05-11T18:46:49.427Z,14.70
2023-05-11T18:49:16.297Z,16.17
2023-05-11T18:51:43.164Z,17.10
2023-05-11T18:54:09.989Z,13.77
2023-05-11T18:56:36.997Z,13.93
2023-05-11T18:59:03.946Z,13.53
2023-05-11T19:01:43.784Z,17.00
2023-05-11T19:04:15.018Z,15.83
2023-05-11T19:09:26.328Z,15.40
2023-05-11T19:11:53.210Z,14.30
2023-05-11T19:14:20.143Z,14.63
2023-05-11T19:16:47.883Z,14.83
2023-05-11T19:19:15.208Z,13.87
2023-05-11T19:21:42.201Z,14.30
2023-05-11T19:24:11.079Z,14.50
2023-05-11T19:26:38.718Z,13.90
2023-05-11T19:29:07.952Z,14.93
2023-05-11T19:31:35.537Z,14.57
2023-05-11T19:34:02.392Z,17.00
2023-05-11T19:36:29.569Z,15.97
2023-05-11T19:38:56.925Z,15.43
2023-05-11T19:41:23.824Z,15.10
2023-05-11T19:43:50.871Z,17.47
2023-05-11T19:46:24.536Z,17.17
2023-05-11T19:48:51.796Z,16.37
2023-05-11T19:51:18.791Z,14.90
2023-05-11T19:53:45.675Z,16.37
2023-05-11T19:56:12.556Z,18.90
2023-05-11T19:58:39.641Z,16.23
2023-05-11T20:01:06.525Z,16.40
2023-05-11T20:03:33.615Z,14.97
2023-05-11T20:06:00.585Z,13.93
2023-05-11T20:08:27.428Z,15.50
2023-05-11T20:10:54.264Z,17.50
2023-05-11T20:13:21.913Z,15.53
2023-05-11T20:15:48.956Z,13.70
2023-05-11T20:18:19.077Z,13.70
2023-05-11T20:20:45.959Z,14.00
2023-05-11T20:23:12.844Z,12.43
2023-05-11T20:25:39.838Z,12.53
2023-05-11T20:28:06.685Z,13.07
2023-05-11T20:30:33.598Z,12.73
2023-05-11T20:35:30.395Z,13.80
2023-05-11T20:37:57.285Z,13.83
2023-05-11T20:40:24.153Z,11.17
2023-05-11T20:42:51.043Z,11.33
2023-05-11T20:45:18.021Z,12.13
2023-05-11T20:47:45.080Z,13.00
2023-05-11T20:50:13.753Z,11.90
2023-05-11T20:52:41.016Z,11.90
2023-05-11T20:55:08.336Z,12.10
2023-05-11T20:57:35.257Z,12.53
2023-05-11T21:00:04.018Z,14.27
2023-05-11T21:02:31.375Z,12.73
2023-05-11T21:04:58.292Z,13.33
2023-05-11T21:07:25.084Z,11.63
2023-05-11T21:09:51.963Z,12.90
2023-05-11T21:12:18.784Z,13.10
2023-05-11T21:14:45.684Z,12.23
2023-05-11T21:17:12.586Z,13.07
2023-05-11T21:19:39.386Z,13.23
2023-05-11T21:22:06.255Z,12.50
2023-05-11T21:24:33.088Z,13.30
2023-05-11T21:26:59.969Z,14.20
2023-05-11T21:29:26.878Z,13.10
2023-05-11T21:31:53.742Z,14.77
2023-05-11T21:34:20.572Z,14.80
2023-05-11T21:36:47.410Z,15.63
2023-05-11T21:39:14.248Z,14.90
2023-05-11T21:41:41.150Z,13.07
2023-05-11T21:44:08.194Z,13.93
2023-05-11T21:46:35.019Z,13.83
2023-05-11T21:49:02.039Z,16.30
2023-05-11T21:51:28.938Z,14.60
2023-05-11T21:53:55.741Z,14.20
2023-05-11T21:56:22.759Z,13.47
2023-05-11T21:58:49.601Z,13.17
2023-05-11T22:01:17.439Z,12.53
2023-05-11T22:03:44.402Z,14.93
2023-05-11T22:06:11.433Z,11.37
2023-05-11T22:08:38.213Z,11.73
2023-05-11T22:11:05.178Z,11.90
2023-05-11T22:13:31.963Z,16.60
2023-05-11T22:15:58.947Z,12.30
2023-05-11T22:18:25.832Z,11.63
2023-05-11T22:20:52.770Z,12.90
2023-05-11T22:23:19.699Z,11.50
2023-05-11T22:25:46.543Z,11.13
2023-05-11T22:28:13.330Z,11.63
2023-05-11T22:30:40.159Z,11.77
2023-05-11T22:33:07.067Z,11.57
2023-05-11T22:35:34.055Z,11.37
2023-05-11T22:38:01.211Z,14.10
2023-05-11T22:40:28.153Z,11.73
2023-05-11T22:42:54.996Z,11.90
2023-05-11T22:45:21.944Z,12.50
2023-05-11T22:47:48.899Z,11.87
2023-05-11T22:50:16.037Z,13.45
2023-05-11T22:52:42.928Z,11.27
2023-05-11T22:55:09.927Z,12.10
2023-05-11T22:57:36.800Z,12.13
2023-05-11T23:00:04.332Z,12.23
2023-05-11T23:02:31.269Z,12.37
2023-05-11T23:04:58.119Z,10.67
2023-05-11T23:07:25.091Z,16.20
2023-05-11T23:09:51.903Z,12.03
2023-05-11T23:12:18.891Z,10.70
2023-05-11T23:14:45.778Z,11.03
2023-05-11T23:17:12.886Z,12.47
2023-05-11T23:19:39.900Z,11.70
2023-05-11T23:22:07.069Z,11.03
2023-05-11T23:24:34.260Z,10.13
2023-05-11T23:27:01.094Z,10.20
2023-05-11T23:29:27.988Z,11.40
2023-05-11T23:31:54.990Z,10.73
2023-05-11T23:34:22.233Z,12.33
2023-05-11T23:36:49.181Z,11.30
2023-05-11T23:39:16.077Z,10.40
2023-05-11T23:41:42.859Z,10.30
2023-05-11T23:44:09.722Z,10.60
2023-05-11T23:46:36.555Z,10.10
2023-05-11T23:49:04.037Z,11.53
2023-05-11T23:51:30.871Z,10.50
2023-05-11T23:53:57.736Z,10.90
2023-05-11T23:56:24.581Z,9.20
2023-05-11T23:58:51.411Z,11.47
